sensor_id;sensor_type;location;lat;lon;timestamp;P1;durP1;ratioP1;P2;durP2;ratioP2
72408;SDS011;60402;48.082;11.628;2023-08-30T00:00:15;10.77;;;5.72;;
72408;SDS011;60402;48.082;11.628;2023-08-30T00:03:06;10.68;;;6.22;;
72408;SDS011;60402;48.082;11.628;2023-08-30T00:05:55;12.38;;;6.65;;
72408;SDS011;60402;48.082;11.628;2023-08-30T00:08:47;11.68;;;6.10;;
72408;SDS011;60402;48.082;11.628;2023-08-30T00:11:35;10.90;;;5.97;;
72408;SDS011;60402;48.082;11.628;2023-08-30T00:14:21;12.68;;;6.43;;
72408;SDS011;60402;48.082;11.628;2023-08-30T00:17:06;11.02;;;5.97;;
72408;SDS011;60402;48.082;11.628;2023-08-30T00:19:52;9.30;;;5.55;;
72408;SDS011;60402;48.082;11.628;2023-08-30T00:22:39;11.13;;;5.72;;
72408;SDS011;60402;48.082;11.628;2023-08-30T00:25:25;9.95;;;5.65;;
72408;SDS011;60402;48.082;11.628;2023-08-30T00:28:10;11.63;;;5.88;;
72408;SDS011;60402;48.082;11.628;2023-08-30T00:30:56;10.63;;;5.28;;
72408;SDS011;60402;48.082;11.628;2023-08-30T00:33:42;9.60;;;5.65;;
72408;SDS011;60402;48.082;11.628;2023-08-30T00:36:27;9.38;;;5.50;;
72408;SDS011;60402;48.082;11.628;2023-08-30T00:39:13;10.23;;;5.30;;
72408;SDS011;60402;48.082;11.628;2023-08-30T00:41:59;8.30;;;4.80;;
72408;SDS011;60402;48.082;11.628;2023-08-30T00:44:46;9.63;;;5.30;;
72408;SDS011;60402;48.082;11.628;2023-08-30T00:47:32;9.45;;;5.28;;
72408;SDS011;60402;48.082;11.628;2023-08-30T00:50:18;10.90;;;6.07;;
72408;SDS011;60402;48.082;11.628;2023-08-30T00:53:04;10.13;;;5.40;;
72408;SDS011;60402;48.082;11.628;2023-08-30T00:58:38;9.35;;;5.55;;
72408;SDS011;60402;48.082;11.628;2023-08-30T01:01:27;10.80;;;5.50;;
72408;SDS011;60402;48.082;11.628;2023-08-30T01:04:13;11.30;;;5.65;;
72408;SDS011;60402;48.082;11.628;2023-08-30T01:06:58;8.60;;;4.90;;
72408;SDS011;60402;48.082;11.628;2023-08-30T01:09:44;9.88;;;5.38;;
72408;SDS011;60402;48.082;11.628;2023-08-30T01:12:33;9.27;;;5.07;;
72408;SDS011;60402;48.082;11.628;2023-08-30T01:15:30;8.88;;;4.88;;
72408;SDS011;60402;48.082;11.628;2023-08-30T01:18:18;8.48;;;4.80;;
72408;SDS011;60402;48.082;11.628;2023-08-30T01:21:05;8.38;;;4.53;;
72408;SDS011;60402;48.082;11.628;2023-08-30T01:23:58;9.90;;;4.47;;
72408;SDS011;60402;48.082;11.628;2023-08-30T01:27:08;10.43;;;5.43;;
72408;SDS011;60402;48.082;11.628;2023-08-30T01:29:54;9.70;;;5.32;;
72408;SDS011;60402;48.082;11.628;2023-08-30T01:32:42;7.50;;;4.28;;
72408;SDS011;60402;48.082;11.628;2023-08-30T01:35:29;8.82;;;4.13;;
72408;SDS011;60402;48.082;11.628;2023-08-30T01:38:18;8.85;;;4.97;;
72408;SDS011;60402;48.082;11.628;2023-08-30T01:41:04;8.70;;;4.57;;
72408;SDS011;60402;48.082;11.628;2023-08-30T01:43:50;8.82;;;4.82;;
72408;SDS011;60402;48.082;11.628;2023-08-30T01:46:38;8.48;;;4.60;;
72408;SDS011;60402;48.082;11.628;2023-08-30T01:49:30;7.93;;;4.22;;
72408;SDS011;60402;48.082;11.628;2023-08-30T01:52:17;9.50;;;5.10;;
72408;SDS011;60402;48.082;11.628;2023-08-30T01:55:04;7.80;;;4.15;;
72408;SDS011;60402;48.082;11.628;2023-08-30T01:57:54;7.93;;;4.18;;
72408;SDS011;60402;48.082;11.628;2023-08-30T02:00:39;9.73;;;4.70;;
72408;SDS011;60402;48.082;11.628;2023-08-30T02:03:25;7.70;;;4.30;;
72408;SDS011;60402;48.082;11.628;2023-08-30T02:06:54;8.43;;;4.47;;
72408;SDS011;60402;48.082;11.628;2023-08-30T02:09:26;8.30;;;4.60;;
72408;SDS011;60402;48.082;11.628;2023-08-30T02:12:15;9.63;;;4.88;;
72408;SDS011;60402;48.082;11.628;2023-08-30T02:15:06;8.60;;;4.78;;
72408;SDS011;60402;48.082;11.628;2023-08-30T02:17:53;7.72;;;4.18;;
72408;SDS011;60402;48.082;11.628;2023-08-30T02:20:41;7.78;;;4.20;;
72408;SDS011;60402;48.082;11.628;2023-08-30T02:23:26;7.57;;;4.18;;
72408;SDS011;60402;48.082;11.628;2023-08-30T02:26:15;6.25;;;3.50;;
72408;SDS011;60402;48.082;11.628;2023-08-30T02:29:00;6.93;;;3.70;;
72408;SDS011;60402;48.082;11.628;2023-08-30T02:31:46;7.00;;;3.80;;
72408;SDS011;60402;48.082;11.628;2023-08-30T02:34:32;7.75;;;4.15;;
72408;SDS011;60402;48.082;11.628;2023-08-30T02:37:18;7.40;;;4.18;;
72408;SDS011;60402;48.082;11.628;2023-08-30T02:40:04;7.40;;;3.92;;
72408;SDS011;60402;48.082;11.628;2023-08-30T02:42:50;7.28;;;3.92;;
72408;SDS011;60402;48.082;11.628;2023-08-30T02:45:35;6.93;;;3.83;;
72408;SDS011;60402;48.082;11.628;2023-08-30T02:48:21;7.25;;;3.75;;
72408;SDS011;60402;48.082;11.628;2023-08-30T02:51:07;7.40;;;4.20;;
72408;SDS011;60402;48.082;11.628;2023-08-30T02:53:53;7.55;;;4.20;;
72408;SDS011;60402;48.082;11.628;2023-08-30T02:56:39;9.15;;;4.10;;
72408;SDS011;60402;48.082;11.628;2023-08-30T02:59:26;6.80;;;3.35;;
72408;SDS011;60402;48.082;11.628;2023-08-30T03:02:12;7.30;;;4.00;;
72408;SDS011;60402;48.082;11.628;2023-08-30T03:04:58;8.27;;;4.07;;
72408;SDS011;60402;48.082;11.628;2023-08-30T03:07:44;8.60;;;4.05;;
72408;SDS011;60402;48.082;11.628;2023-08-30T03:10:32;8.43;;;4.20;;
72408;SDS011;60402;48.082;11.628;2023-08-30T03:13:18;7.20;;;3.75;;
72408;SDS011;60402;48.082;11.628;2023-08-30T03:16:14;7.35;;;4.13;;
72408;SDS011;60402;48.082;11.628;2023-08-30T03:19:01;6.78;;;3.58;;
72408;SDS011;60402;48.082;11.628;2023-08-30T03:21:47;6.75;;;3.78;;
72408;SDS011;60402;48.082;11.628;2023-08-30T03:24:33;6.70;;;3.42;;
72408;SDS011;60402;48.082;11.628;2023-08-30T03:27:21;7.00;;;3.70;;
72408;SDS011;60402;48.082;11.628;2023-08-30T03:30:07;6.30;;;3.70;;
72408;SDS011;60402;48.082;11.628;2023-08-30T03:32:53;6.90;;;3.35;;
72408;SDS011;60402;48.082;11.628;2023-08-30T03:35:38;8.55;;;3.75;;
72408;SDS011;60402;48.082;11.628;2023-08-30T03:38:24;5.90;;;3.33;;
72408;SDS011;60402;48.082;11.628;2023-08-30T03:41:10;7.93;;;3.42;;
72408;SDS011;60402;48.082;11.628;2023-08-30T03:43:59;6.63;;;3.13;;
72408;SDS011;60402;48.082;11.628;2023-08-30T03:46:45;6.15;;;3.15;;
72408;SDS011;60402;48.082;11.628;2023-08-30T03:49:31;5.53;;;2.90;;
72408;SDS011;60402;48.082;11.628;2023-08-30T03:52:16;7.57;;;3.20;;
72408;SDS011;60402;48.082;11.628;2023-08-30T03:55:02;5.57;;;3.22;;
72408;SDS011;60402;48.082;11.628;2023-08-30T03:57:48;6.13;;;2.97;;
72408;SDS011;60402;48.082;11.628;2023-08-30T04:00:37;6.30;;;3.50;;
72408;SDS011;60402;48.082;11.628;2023-08-30T04:03:23;5.28;;;3.30;;
72408;SDS011;60402;48.082;11.628;2023-08-30T04:06:09;5.78;;;3.15;;
72408;SDS011;60402;48.082;11.628;2023-08-30T04:08:54;4.95;;;2.58;;
72408;SDS011;60402;48.082;11.628;2023-08-30T04:11:40;6.22;;;3.17;;
72408;SDS011;60402;48.082;11.628;2023-08-30T04:14:27;5.00;;;2.70;;
72408;SDS011;60402;48.082;11.628;2023-08-30T04:17:13;6.18;;;3.20;;
72408;SDS011;60402;48.082;11.628;2023-08-30T04:19:58;4.82;;;2.55;;
72408;SDS011;60402;48.082;11.628;2023-08-30T04:22:44;6.25;;;2.88;;
72408;SDS011;60402;48.082;11.628;2023-08-30T04:25:30;5.75;;;2.95;;
72408;SDS011;60402;48.082;11.628;2023-08-30T04:28:16;5.45;;;3.30;;
72408;SDS011;60402;48.082;11.628;2023-08-30T04:31:01;5.68;;;3.63;;
72408;SDS011;60402;48.082;11.628;2023-08-30T04:33:47;5.78;;;3.03;;
72408;SDS011;60402;48.082;11.628;2023-08-30T04:36:33;5.50;;;2.80;;
72408;SDS011;60402;48.082;11.628;2023-08-30T04:39:18;5.55;;;2.83;;
72408;SDS011;60402;48.082;11.628;2023-08-30T04:42:07;7.85;;;2.95;;
72408;SDS011;60402;48.082;11.628;2023-08-30T04:44:53;5.43;;;2.55;;
72408;SDS011;60402;48.082;11.628;2023-08-30T04:47:40;4.50;;;2.40;;
72408;SDS011;60402;48.082;11.628;2023-08-30T04:50:28;5.80;;;3.03;;
72408;SDS011;60402;48.082;11.628;2023-08-30T04:53:14;5.47;;;2.88;;
72408;SDS011;60402;48.082;11.628;2023-08-30T04:55:59;6.47;;;3.15;;
72408;SDS011;60402;48.082;11.628;2023-08-30T04:58:45;6.05;;;3.17;;
72408;SDS011;60402;48.082;11.628;2023-08-30T05:01:31;5.65;;;3.17;;
72408;SDS011;60402;48.082;11.628;2023-08-30T05:04:17;6.60;;;2.90;;
72408;SDS011;60402;48.082;11.628;2023-08-30T05:07:03;5.72;;;3.13;;
72408;SDS011;60402;48.082;11.628;2023-08-30T05:09:49;5.72;;;3.10;;
72408;SDS011;60402;48.082;11.628;2023-08-30T05:12:37;5.75;;;3.10;;
72408;SDS011;60402;48.082;11.628;2023-08-30T05:15:22;5.07;;;2.63;;
72408;SDS011;60402;48.082;11.628;2023-08-30T05:18:08;5.85;;;3.00;;
72408;SDS011;60402;48.082;11.628;2023-08-30T05:20:56;5.55;;;2.88;;
72408;SDS011;60402;48.082;11.628;2023-08-30T05:23:42;6.63;;;3.22;;
72408;SDS011;60402;48.082;11.628;2023-08-30T05:26:27;5.57;;;3.00;;
72408;SDS011;60402;48.082;11.628;2023-08-30T05:29:14;5.53;;;2.90;;
72408;SDS011;60402;48.082;11.628;2023-08-30T05:32:00;5.93;;;2.92;;
72408;SDS011;60402;48.082;11.628;2023-08-30T05:34:46;5.88;;;2.70;;
72408;SDS011;60402;48.082;11.628;2023-08-30T05:37:31;7.35;;;3.03;;
72408;SDS011;60402;48.082;11.628;2023-08-30T05:40:20;6.07;;;2.85;;
72408;SDS011;60402;48.082;11.628;2023-08-30T05:45:51;6.28;;;3.22;;
72408;SDS011;60402;48.082;11.628;2023-08-30T05:48:37;6.35;;;3.05;;
72408;SDS011;60402;48.082;11.628;2023-08-30T05:51:22;6.78;;;3.38;;
72408;SDS011;60402;48.082;11.628;2023-08-30T05:54:08;4.95;;;2.75;;
72408;SDS011;60402;48.082;11.628;2023-08-30T05:56:54;5.55;;;2.90;;
72408;SDS011;60402;48.082;11.628;2023-08-30T05:59:39;6.97;;;3.65;;
72408;SDS011;60402;48.082;11.628;2023-08-30T06:02:25;5.75;;;2.95;;
72408;SDS011;60402;48.082;11.628;2023-08-30T06:05:11;6.03;;;3.28;;
72408;SDS011;60402;48.082;11.628;2023-08-30T06:07:56;6.38;;;3.08;;
72408;SDS011;60402;48.082;11.628;2023-08-30T06:10:45;6.93;;;3.53;;
72408;SDS011;60402;48.082;11.628;2023-08-30T06:13:31;6.60;;;3.40;;
72408;SDS011;60402;48.082;11.628;2023-08-30T06:16:16;5.53;;;3.10;;
72408;SDS011;60402;48.082;11.628;2023-08-30T06:19:02;6.45;;;3.13;;
72408;SDS011;60402;48.082;11.628;2023-08-30T06:21:48;6.70;;;2.95;;
72408;SDS011;60402;48.082;11.628;2023-08-30T06:24:33;5.03;;;2.75;;
72408;SDS011;60402;48.082;11.628;2023-08-30T06:27:19;7.72;;;3.50;;
72408;SDS011;60402;48.082;11.628;2023-08-30T06:30:05;6.03;;;3.10;;
72408;SDS011;60402;48.082;11.628;2023-08-30T06:32:51;6.22;;;2.80;;
72408;SDS011;60402;48.082;11.628;2023-08-30T06:35:37;6.18;;;2.88;;
72408;SDS011;60402;48.082;11.628;2023-08-30T06:38:26;7.22;;;3.10;;
72408;SDS011;60402;48.082;11.628;2023-08-30T06:41:12;6.30;;;3.20;;
72408;SDS011;60402;48.082;11.628;2023-08-30T06:43:57;6.20;;;3.05;;
72408;SDS011;60402;48.082;11.628;2023-08-30T06:46:43;5.55;;;2.83;;
72408;SDS011;60402;48.082;11.628;2023-08-30T06:49:29;5.78;;;2.92;;
72408;SDS011;60402;48.082;11.628;2023-08-30T06:52:17;6.88;;;3.25;;
72408;SDS011;60402;48.082;11.628;2023-08-30T06:55:02;5.80;;;3.22;;
72408;SDS011;60402;48.082;11.628;2023-08-30T06:57:48;6.05;;;3.22;;
72408;SDS011;60402;48.082;11.628;2023-08-30T07:00:37;7.13;;;3.28;;
72408;SDS011;60402;48.082;11.628;2023-08-30T07:03:22;5.40;;;2.90;;
72408;SDS011;60402;48.082;11.628;2023-08-30T07:06:08;6.05;;;3.40;;
72408;SDS011;60402;48.082;11.628;2023-08-30T07:08:54;6.90;;;3.15;;
72408;SDS011;60402;48.082;11.628;2023-08-30T07:11:41;5.88;;;2.95;;
72408;SDS011;60402;48.082;11.628;2023-08-30T07:14:29;5.13;;;2.70;;
72408;SDS011;60402;48.082;11.628;2023-08-30T07:17:15;6.38;;;3.10;;
72408;SDS011;60402;48.082;11.628;2023-08-30T07:20:00;6.03;;;3.13;;
72408;SDS011;60402;48.082;11.628;2023-08-30T07:22:46;6.88;;;3.17;;
72408;SDS011;60402;48.082;11.628;2023-08-30T07:25:32;6.60;;;3.55;;
72408;SDS011;60402;48.082;11.628;2023-08-30T07:28:22;7.63;;;3.30;;
72408;SDS011;60402;48.082;11.628;2023-08-30T07:31:07;6.10;;;3.22;;
72408;SDS011;60402;48.082;11.628;2023-08-30T07:33:53;6.03;;;3.30;;
72408;SDS011;60402;48.082;11.628;2023-08-30T07:36:39;6.40;;;3.22;;
72408;SDS011;60402;48.082;11.628;2023-08-30T07:39:25;5.78;;;3.20;;
72408;SDS011;60402;48.082;11.628;2023-08-30T07:42:10;6.95;;;3.63;;
72408;SDS011;60402;48.082;11.628;2023-08-30T07:44:56;6.93;;;3.50;;
72408;SDS011;60402;48.082;11.628;2023-08-30T07:47:42;5.82;;;2.90;;
72408;SDS011;60402;48.082;11.628;2023-08-30T07:50:27;5.35;;;2.85;;
72408;SDS011;60402;48.082;11.628;2023-08-30T07:53:13;7.18;;;3.85;;
72408;SDS011;60402;48.082;11.628;2023-08-30T07:55:59;6.10;;;3.38;;
72408;SDS011;60402;48.082;11.628;2023-08-30T07:58:44;6.97;;;3.15;;
72408;SDS011;60402;48.082;11.628;2023-08-30T08:01:30;7.35;;;3.75;;
72408;SDS011;60402;48.082;11.628;2023-08-30T08:04:15;6.30;;;3.40;;
72408;SDS011;60402;48.082;11.628;2023-08-30T08:07:01;6.57;;;3.50;;
72408;SDS011;60402;48.082;11.628;2023-08-30T08:09:48;6.20;;;3.20;;
72408;SDS011;60402;48.082;11.628;2023-08-30T08:12:34;5.55;;;3.40;;
72408;SDS011;60402;48.082;11.628;2023-08-30T08:15:19;5.63;;;3.25;;
72408;SDS011;60402;48.082;11.628;2023-08-30T08:18:05;7.47;;;3.40;;
72408;SDS011;60402;48.082;11.628;2023-08-30T08:20:51;6.22;;;3.17;;
72408;SDS011;60402;48.082;11.628;2023-08-30T08:23:37;5.93;;;3.50;;
72408;SDS011;60402;48.082;11.628;2023-08-30T08:26:22;5.97;;;3.20;;
72408;SDS011;60402;48.082;11.628;2023-08-30T08:29:08;5.60;;;3.05;;
72408;SDS011;60402;48.082;11.628;2023-08-30T08:31:54;6.38;;;3.33;;
72408;SDS011;60402;48.082;11.628;2023-08-30T08:34:39;6.07;;;3.00;;
72408;SDS011;60402;48.082;11.628;2023-08-30T08:37:25;7.13;;;3.58;;
72408;SDS011;60402;48.082;11.628;2023-08-30T08:40:11;6.47;;;3.75;;
72408;SDS011;60402;48.082;11.628;2023-08-30T08:42:56;6.07;;;3.75;;
72408;SDS011;60402;48.082;11.628;2023-08-30T08:45:44;5.70;;;3.22;;
72408;SDS011;60402;48.082;11.628;2023-08-30T08:48:31;5.80;;;3.30;;
72408;SDS011;60402;48.082;11.628;2023-08-30T08:51:19;6.22;;;3.58;;
72408;SDS011;60402;48.082;11.628;2023-08-30T08:54:06;6.35;;;3.25;;
72408;SDS011;60402;48.082;11.628;2023-08-30T08:56:51;6.30;;;3.47;;
72408;SDS011;60402;48.082;11.628;2023-08-30T08:59:38;6.20;;;3.00;;
72408;SDS011;60402;48.082;11.628;2023-08-30T09:02:24;5.10;;;2.92;;
72408;SDS011;60402;48.082;11.628;2023-08-30T09:05:10;4.55;;;2.72;;
72408;SDS011;60402;48.082;11.628;2023-08-30T09:07:56;6.32;;;3.25;;
72408;SDS011;60402;48.082;11.628;2023-08-30T09:10:41;5.50;;;3.05;;
72408;SDS011;60402;48.082;11.628;2023-08-30T09:13:28;6.18;;;3.38;;
72408;SDS011;60402;48.082;11.628;2023-08-30T09:16:15;4.90;;;2.63;;
72408;SDS011;60402;48.082;11.628;2023-08-30T09:19:02;5.50;;;3.10;;
72408;SDS011;60402;48.082;11.628;2023-08-30T09:21:52;5.10;;;3.00;;
72408;SDS011;60402;48.082;11.628;2023-08-30T09:24:42;6.30;;;3.00;;
72408;SDS011;60402;48.082;11.628;2023-08-30T09:27:32;6.05;;;3.25;;
72408;SDS011;60402;48.082;11.628;2023-08-30T09:30:22;4.57;;;2.58;;
72408;SDS011;60402;48.082;11.628;2023-08-30T09:33:07;4.43;;;2.80;;
72408;SDS011;60402;48.082;11.628;2023-08-30T09:35:53;4.72;;;2.70;;
72408;SDS011;60402;48.082;11.628;2023-08-30T09:38:39;6.10;;;2.95;;
72408;SDS011;60402;48.082;11.628;2023-08-30T09:41:24;3.97;;;2.40;;
72408;SDS011;60402;48.082;11.628;2023-08-30T09:44:14;4.07;;;2.47;;
72408;SDS011;60402;48.082;11.628;2023-08-30T09:47:06;5.20;;;2.20;;
72408;SDS011;60402;48.082;11.628;2023-08-30T09:49:52;4.43;;;2.15;;
72408;SDS011;60402;48.082;11.628;2023-08-30T09:52:40;4.85;;;2.10;;
72408;SDS011;60402;48.082;11.628;2023-08-30T09:55:26;3.90;;;2.22;;
72408;SDS011;60402;48.082;11.628;2023-08-30T09:58:12;4.05;;;2.00;;
72408;SDS011;60402;48.082;11.628;2023-08-30T10:00:58;3.67;;;1.90;;
72408;SDS011;60402;48.082;11.628;2023-08-30T10:03:44;3.15;;;1.77;;
72408;SDS011;60402;48.082;11.628;2023-08-30T10:06:29;4.07;;;1.65;;
72408;SDS011;60402;48.082;11.628;2023-08-30T10:09:16;3.13;;;1.70;;
72408;SDS011;60402;48.082;11.628;2023-08-30T10:12:05;2.00;;;1.50;;
72408;SDS011;60402;48.082;11.628;2023-08-30T10:14:52;3.65;;;2.05;;
72408;SDS011;60402;48.082;11.628;2023-08-30T10:17:38;3.35;;;1.75;;
72408;SDS011;60402;48.082;11.628;2023-08-30T10:20:30;3.97;;;1.80;;
72408;SDS011;60402;48.082;11.628;2023-08-30T10:23:16;3.22;;;1.90;;
72408;SDS011;60402;48.082;11.628;2023-08-30T10:26:03;4.28;;;1.75;;
72408;SDS011;60402;48.082;11.628;2023-08-30T10:28:52;2.95;;;1.58;;
72408;SDS011;60402;48.082;11.628;2023-08-30T10:31:39;2.35;;;1.33;;
72408;SDS011;60402;48.082;11.628;2023-08-30T10:34:31;3.78;;;1.73;;
72408;SDS011;60402;48.082;11.628;2023-08-30T10:37:22;2.55;;;1.42;;
72408;SDS011;60402;48.082;11.628;2023-08-30T10:40:11;2.53;;;1.65;;
72408;SDS011;60402;48.082;11.628;2023-08-30T10:43:04;2.70;;;1.40;;
72408;SDS011;60402;48.082;11.628;2023-08-30T10:45:58;3.63;;;1.60;;
72408;SDS011;60402;48.082;11.628;2023-08-30T10:48:45;2.55;;;1.50;;
72408;SDS011;60402;48.082;11.628;2023-08-30T10:51:37;3.88;;;1.60;;
72408;SDS011;60402;48.082;11.628;2023-08-30T10:54:24;2.60;;;1.40;;
72408;SDS011;60402;48.082;11.628;2023-08-30T10:57:14;3.35;;;1.60;;
72408;SDS011;60402;48.082;11.628;2023-08-30T11:03:02;2.90;;;1.65;;
72408;SDS011;60402;48.082;11.628;2023-08-30T11:05:49;3.40;;;1.50;;
72408;SDS011;60402;48.082;11.628;2023-08-30T11:08:35;3.22;;;1.70;;
72408;SDS011;60402;48.082;11.628;2023-08-30T11:11:20;5.15;;;1.50;;
72408;SDS011;60402;48.082;11.628;2023-08-30T11:14:06;2.22;;;1.40;;
72408;SDS011;60402;48.082;11.628;2023-08-30T11:16:53;3.65;;;1.65;;
72408;SDS011;60402;48.082;11.628;2023-08-30T11:19:40;3.08;;;1.40;;
72408;SDS011;60402;48.082;11.628;2023-08-30T11:22:26;2.55;;;1.52;;
72408;SDS011;60402;48.082;11.628;2023-08-30T11:25:13;2.08;;;1.40;;
72408;SDS011;60402;48.082;11.628;2023-08-30T11:28:04;2.75;;;1.50;;
72408;SDS011;60402;48.082;11.628;2023-08-30T11:30:50;3.25;;;1.55;;
72408;SDS011;60402;48.082;11.628;2023-08-30T11:33:38;2.90;;;1.33;;
72408;SDS011;60402;48.082;11.628;2023-08-30T11:36:26;4.13;;;1.92;;
72408;SDS011;60402;48.082;11.628;2023-08-30T11:39:13;2.17;;;1.30;;
72408;SDS011;60402;48.082;11.628;2023-08-30T11:41:59;2.65;;;1.58;;
72408;SDS011;60402;48.082;11.628;2023-08-30T11:44:50;2.97;;;1.55;;
72408;SDS011;60402;48.082;11.628;2023-08-30T11:47:36;3.13;;;1.30;;
72408;SDS011;60402;48.082;11.628;2023-08-30T11:50:23;2.25;;;1.50;;
72408;SDS011;60402;48.082;11.628;2023-08-30T11:53:09;2.42;;;1.30;;
72408;SDS011;60402;48.082;11.628;2023-08-30T11:55:55;2.25;;;1.40;;
72408;SDS011;60402;48.082;11.628;2023-08-30T11:58:41;3.78;;;1.40;;
72408;SDS011;60402;48.082;11.628;2023-08-30T12:01:28;2.47;;;1.35;;
72408;SDS011;60402;48.082;11.628;2023-08-30T12:04:14;3.20;;;1.35;;
72408;SDS011;60402;48.082;11.628;2023-08-30T12:07:00;3.17;;;1.45;;
72408;SDS011;60402;48.082;11.628;2023-08-30T12:09:46;2.55;;;1.30;;
72408;SDS011;60402;48.082;11.628;2023-08-30T12:12:32;2.28;;;1.33;;
72408;SDS011;60402;48.082;11.628;2023-08-30T12:15:17;3.22;;;1.50;;
72408;SDS011;60402;48.082;11.628;2023-08-30T12:18:07;2.55;;;1.40;;
72408;SDS011;60402;48.082;11.628;2023-08-30T12:21:03;3.00;;;1.42;;
72408;SDS011;60402;48.082;11.628;2023-08-30T12:23:59;2.65;;;1.20;;
72408;SDS011;60402;48.082;11.628;2023-08-30T12:26:45;2.25;;;1.20;;
72408;SDS011;60402;48.082;11.628;2023-08-30T12:29:30;2.42;;;1.25;;
72408;SDS011;60402;48.082;11.628;2023-08-30T12:32:16;1.95;;;1.02;;
72408;SDS011;60402;48.082;11.628;2023-08-30T12:35:02;1.75;;;1.40;;
72408;SDS011;60402;48.082;11.628;2023-08-30T12:37:47;3.03;;;1.40;;
72408;SDS011;60402;48.082;11.628;2023-08-30T12:40:33;1.55;;;1.00;;
72408;SDS011;60402;48.082;11.628;2023-08-30T12:43:19;2.55;;;1.30;;
72408;SDS011;60402;48.082;11.628;2023-08-30T12:46:05;3.22;;;1.40;;
72408;SDS011;60402;48.082;11.628;2023-08-30T12:48:52;3.10;;;1.30;;
72408;SDS011;60402;48.082;11.628;2023-08-30T12:51:38;1.90;;;1.20;;
72408;SDS011;60402;48.082;11.628;2023-08-30T12:54:23;2.03;;;1.13;;
72408;SDS011;60402;48.082;11.628;2023-08-30T12:57:09;2.50;;;1.20;;
72408;SDS011;60402;48.082;11.628;2023-08-30T12:59:55;2.53;;;1.30;;
72408;SDS011;60402;48.082;11.628;2023-08-30T13:02:40;3.35;;;1.40;;
72408;SDS011;60402;48.082;11.628;2023-08-30T13:05:26;2.58;;;1.30;;
72408;SDS011;60402;48.082;11.628;2023-08-30T13:08:12;2.05;;;1.30;;
72408;SDS011;60402;48.082;11.628;2023-08-30T13:11:01;2.53;;;1.38;;
72408;SDS011;60402;48.082;11.628;2023-08-30T13:13:47;2.35;;;1.20;;
72408;SDS011;60402;48.082;11.628;2023-08-30T13:16:32;1.63;;;1.30;;
72408;SDS011;60402;48.082;11.628;2023-08-30T13:19:18;2.08;;;1.35;;
72408;SDS011;60402;48.082;11.628;2023-08-30T13:22:04;1.40;;;1.00;;
72408;SDS011;60402;48.082;11.628;2023-08-30T13:24:49;3.55;;;1.30;;
72408;SDS011;60402;48.082;11.628;2023-08-30T13:27:35;2.55;;;1.30;;
72408;SDS011;60402;48.082;11.628;2023-08-30T13:30:21;1.77;;;1.02;;
72408;SDS011;60402;48.082;11.628;2023-08-30T13:33:07;2.67;;;1.13;;
72408;SDS011;60402;48.082;11.628;2023-08-30T13:35:53;1.85;;;1.00;;
72408;SDS011;60402;48.082;11.628;2023-08-30T13:38:39;3.17;;;1.35;;
72408;SDS011;60402;48.082;11.628;2023-08-30T13:41:24;2.42;;;1.05;;
72408;SDS011;60402;48.082;11.628;2023-08-30T13:44:13;2.83;;;1.20;;
72408;SDS011;60402;48.082;11.628;2023-08-30T13:47:04;2.97;;;1.10;;
72408;SDS011;60402;48.082;11.628;2023-08-30T13:49:50;2.72;;;1.27;;
72408;SDS011;60402;48.082;11.628;2023-08-30T13:52:39;1.85;;;1.20;;
72408;SDS011;60402;48.082;11.628;2023-08-30T13:55:24;3.03;;;1.45;;
72408;SDS011;60402;48.082;11.628;2023-08-30T13:58:10;2.45;;;1.40;;
72408;SDS011;60402;48.082;11.628;2023-08-30T14:00:55;2.63;;;1.20;;
72408;SDS011;60402;48.082;11.628;2023-08-30T14:03:41;2.03;;;1.30;;
72408;SDS011;60402;48.082;11.628;2023-08-30T14:06:27;2.47;;;1.25;;
72408;SDS011;60402;48.082;11.628;2023-08-30T14:12:02;2.90;;;1.50;;
72408;SDS011;60402;48.082;11.628;2023-08-30T14:14:49;2.05;;;1.42;;
72408;SDS011;60402;48.082;11.628;2023-08-30T14:17:35;2.58;;;1.63;;
72408;SDS011;60402;48.082;11.628;2023-08-30T14:20:20;3.22;;;1.83;;
72408;SDS011;60402;48.082;11.628;2023-08-30T14:23:06;3.10;;;2.00;;
72408;SDS011;60402;48.082;11.628;2023-08-30T14:25:55;3.58;;;1.90;;
72408;SDS011;60402;48.082;11.628;2023-08-30T14:28:54;3.50;;;1.90;;
72408;SDS011;60402;48.082;11.628;2023-08-30T14:31:40;3.65;;;2.10;;
72408;SDS011;60402;48.082;11.628;2023-08-30T14:34:26;4.35;;;2.40;;
72408;SDS011;60402;48.082;11.628;2023-08-30T14:37:12;3.70;;;2.00;;
72408;SDS011;60402;48.082;11.628;2023-08-30T14:39:58;4.18;;;2.22;;
72408;SDS011;60402;48.082;11.628;2023-08-30T14:42:43;3.53;;;2.10;;
72408;SDS011;60402;48.082;11.628;2023-08-30T14:45:30;4.03;;;2.03;;
72408;SDS011;60402;48.082;11.628;2023-08-30T14:48:16;3.20;;;1.63;;
72408;SDS011;60402;48.082;11.628;2023-08-30T14:51:05;3.50;;;1.52;;
72408;SDS011;60402;48.082;11.628;2023-08-30T14:53:52;2.78;;;1.50;;
72408;SDS011;60402;48.082;11.628;2023-08-30T14:56:38;2.65;;;1.77;;
72408;SDS011;60402;48.082;11.628;2023-08-30T14:59:23;2.15;;;1.40;;
72408;SDS011;60402;48.082;11.628;2023-08-30T15:02:09;3.03;;;1.55;;
72408;SDS011;60402;48.082;11.628;2023-08-30T15:04:55;4.13;;;1.60;;
72408;SDS011;60402;48.082;11.628;2023-08-30T15:07:43;3.42;;;1.63;;
72408;SDS011;60402;48.082;11.628;2023-08-30T15:10:29;2.08;;;1.30;;
72408;SDS011;60402;48.082;11.628;2023-08-30T15:13:15;2.40;;;1.40;;
72408;SDS011;60402;48.082;11.628;2023-08-30T15:16:00;2.85;;;1.30;;
72408;SDS011;60402;48.082;11.628;2023-08-30T15:18:46;3.45;;;1.40;;
72408;SDS011;60402;48.082;11.628;2023-08-30T15:21:32;2.38;;;1.35;;
72408;SDS011;60402;48.082;11.628;2023-08-30T15:24:17;2.05;;;1.30;;
72408;SDS011;60402;48.082;11.628;2023-08-30T15:27:03;2.10;;;1.63;;
72408;SDS011;60402;48.082;11.628;2023-08-30T15:29:49;2.92;;;1.40;;
72408;SDS011;60402;48.082;11.628;2023-08-30T15:32:37;1.73;;;1.30;;
72408;SDS011;60402;48.082;11.628;2023-08-30T15:35:23;3.15;;;1.55;;
72408;SDS011;60402;48.082;11.628;2023-08-30T15:38:08;2.58;;;1.42;;
72408;SDS011;60402;48.082;11.628;2023-08-30T15:40:54;2.65;;;1.33;;
72408;SDS011;60402;48.082;11.628;2023-08-30T15:43:43;3.35;;;1.30;;
72408;SDS011;60402;48.082;11.628;2023-08-30T15:46:29;1.98;;;1.30;;
72408;SDS011;60402;48.082;11.628;2023-08-30T15:49:15;2.25;;;1.33;;
72408;SDS011;60402;48.082;11.628;2023-08-30T15:52:00;2.42;;;1.30;;
72408;SDS011;60402;48.082;11.628;2023-08-30T15:54:46;3.38;;;1.40;;
72408;SDS011;60402;48.082;11.628;2023-08-30T15:57:32;1.85;;;1.13;;
72408;SDS011;60402;48.082;11.628;2023-08-30T16:00:17;2.60;;;1.40;;
72408;SDS011;60402;48.082;11.628;2023-08-30T16:03:03;2.60;;;1.33;;
72408;SDS011;60402;48.082;11.628;2023-08-30T16:05:49;2.92;;;1.60;;
72408;SDS011;60402;48.082;11.628;2023-08-30T16:08:35;3.25;;;1.55;;
72408;SDS011;60402;48.082;11.628;2023-08-30T16:11:20;2.90;;;1.55;;
72408;SDS011;60402;48.082;11.628;2023-08-30T16:14:06;2.28;;;1.30;;
72408;SDS011;60402;48.082;11.628;2023-08-30T16:16:52;2.75;;;1.63;;
72408;SDS011;60402;48.082;11.628;2023-08-30T16:19:38;3.03;;;1.50;;
72408;SDS011;60402;48.082;11.628;2023-08-30T16:22:26;4.07;;;1.98;;
72408;SDS011;60402;48.082;11.628;2023-08-30T16:25:12;3.53;;;1.80;;
72408;SDS011;60402;48.082;11.628;2023-08-30T16:27:57;4.10;;;1.95;;
72408;SDS011;60402;48.082;11.628;2023-08-30T16:30:43;2.72;;;1.63;;
72408;SDS011;60402;48.082;11.628;2023-08-30T16:33:29;3.65;;;1.80;;
72408;SDS011;60402;48.082;11.628;2023-08-30T16:36:14;2.95;;;1.50;;
72408;SDS011;60402;48.082;11.628;2023-08-30T16:39:00;3.95;;;1.92;;